Latest Weather Observations for Tewantin

IDQ60901

Issued at 2:31 pm EST Monday 3 August 2015 (issued every 10 minutes, with the page automatically refreshed every 10 minutes)

About weather observations | Map of Brisbane area stations | Latest observations for Brisbane area | Other Formats
Station Details ID: 040908 Name: TEWANTIN RSL PARK Lat: -26.39 Lon: 153.04 Height: 6.4 m
Data from the previous 72 hours. | See also: Recent months at Tewantin
Date/Time
EST
Tmp

°C
App
Tmp
°C
Dew
Point
°C
Rel
Hum
%
Delta-T

°C
Wind Press
QNH
hPa
Press
MSL
hPa
Rain
since
9 am
mm
Dir
 
Spd
km/h
Gust
km/h
Spd
kts
Gust
kts
03/02:30pm 25.7 25.1 13.5 46 7.2 NNW 9 19 5 10 1015.3 1015.3 0.2
03/02:00pm 25.3 24.1 12.9 46 7.2 NW 11 20 6 11 1015.4 1015.4 0.2
03/01:30pm 25.7 24.5 13.9 48 7.0 NNW 13 20 7 11 1015.8 1015.8 0.2
03/01:00pm 24.8 23.9 14.9 54 5.9 NNW 13 20 7 11 1016.3 1016.3 0.2
03/12:30pm 24.6 24.3 15.5 57 5.5 NNW 11 17 6 9 1016.9 1016.9 0.2
03/12:00pm 24.0 23.3 14.4 55 5.7 NW 11 20 6 11 1017.5 1017.5 0.2
03/11:30am 23.6 23.7 16.4 64 4.4 N 11 19 6 10 1018.1 1018.1 0.2
03/11:00am 22.0 21.8 16.7 72 3.2 N 13 22 7 12 1018.8 1018.8 0.2
03/10:30am 20.7 20.7 17.1 80 2.2 N 13 19 7 10 1019.4 1019.4 0.2
03/10:00am 19.6 20.2 17.7 89 1.2 NNW 11 17 6 9 1019.9 1019.9 0.2
03/09:30am 17.2 17.9 17.0 99 0.1 NNW 9 13 5 7 1020.1 1020.1 0.0
03/09:00am 16.1 16.8 16.1 100 0.0 NNW 7 13 4 7 1020.1 1020.1 0.0
03/08:30am 15.1 15.1 15.1 100 0.0 NW 9 13 5 7 1020.0 1020.0 0.0
03/08:00am 15.0 14.9 15.0 100 0.0 NW 9 13 5 7 1020.0 1020.0 0.0
03/07:30am 14.5 14.2 14.3 99 0.1 NW 9 13 5 7 1019.7 1019.7 0.0
03/07:00am 14.0 13.9 13.8 99 0.1 NW 7 13 4 7 1019.5 1019.5 0.0
03/06:30am 13.7 13.1 13.5 99 0.1 NW 9 11 5 6 1019.3 1019.3 0.0
03/06:00am 13.5 13.2 13.3 99 0.1 NW 7 11 4 6 1019.2 1019.2 0.0
03/05:30am 13.8 13.2 13.6 99 0.1 NW 9 13 5 7 1019.0 1019.0 0.0
03/05:00am 13.6 13.3 13.4 99 0.1 NW 7 9 4 5 1019.0 1019.0 0.0
03/04:30am 13.6 13.3 13.4 99 0.1 NW 7 9 4 5 1018.8 1018.8 0.0
03/04:00am 13.6 13.5 13.4 99 0.1 NNW 6 9 3 5 1018.9 1018.9 0.0
03/03:30am 13.5 13.2 13.3 99 0.1 WNW 7 9 4 5 1018.9 1018.9 0.0
03/03:00am 13.2 13.0 13.0 99 0.1 NW 6 7 3 4 1019.0 1019.0 0.0
03/02:30am 13.4 14.4 13.2 99 0.1 CALM 0 0 0 0 1019.3 1019.3 0.0
03/02:00am 13.6 14.3 13.4 99 0.1 N 2 6 1 3 1019.6 1019.6 0.0
03/01:30am 13.7 14.8 13.5 99 0.1 CALM 0 0 0 0 1019.9 1019.9 0.0
03/01:00am 14.0 14.8 13.8 99 0.1 S 2 6 1 3 1020.3 1020.3 0.0
03/12:30am 14.1 15.3 13.8 98 0.2 CALM 0 0 0 0 1020.2 1020.2 0.0
03/12:00am 14.4 15.6 13.9 97 0.3 CALM 0 6 0 3 1020.4 1020.4 0.0
 
Date/Time
EST
Tmp

°C
App
Tmp
°C
Dew
Point
°C
Rel
Hum
%
Delta-T

°C
Wind Press
QNH
hPa
Press
MSL
hPa
Rain
since
9 am
mm
Dir
 
Spd
km/h
Gust
km/h
Spd
kts
Gust
kts
02/11:30pm 14.5 15.8 14.0 97 0.3 CALM 0 0 0 0 1020.4 1020.4 0.0
02/11:00pm 14.9 15.3 13.8 93 0.6 NNW 4 7 2 4 1020.6 1020.6 0.0
02/10:30pm 15.4 15.2 13.6 89 1.0 WNW 7 9 4 5 1020.7 1020.7 0.0
02/10:00pm 15.6 15.7 13.8 89 1.0 WNW 6 9 3 5 1020.7 1020.7 0.0
02/09:30pm 16.2 16.2 14.2 88 1.1 NW 7 11 4 6 1020.6 1020.6 0.0
02/09:00pm 16.5 16.6 14.5 88 1.1 NW 7 11 4 6 1020.7 1020.7 0.0
02/08:30pm 16.6 16.8 14.6 88 1.1 NW 7 7 4 4 1020.8 1020.8 0.0
02/08:00pm 16.9 16.9 14.2 84 1.5 WNW 7 9 4 5 1020.8 1020.8 0.0
02/07:30pm 17.6 18.5 14.1 80 2.0 NW 2 6 1 3 1020.7 1020.7 0.0
02/07:00pm 18.6 18.8 14.7 78 2.3 NNW 7 13 4 7 1020.3 1020.3 0.0
02/06:30pm 19.1 18.7 15.2 78 2.3 N 11 17 6 9 1020.1 1020.1 0.0
02/06:00pm 19.4 19.8 16.2 82 1.9 N 9 15 5 8 1019.9 1019.9 0.0
02/05:30pm 19.8 19.4 16.1 79 2.2 NNE 13 24 7 13 1019.6 1019.6 0.0
02/05:00pm 20.5 19.3 16.1 76 2.6 NNE 17 24 9 13 1019.3 1019.3 0.0
02/04:30pm 20.9 19.8 16.3 75 2.8 NNE 17 28 9 15 1019.2 1019.2 0.0
02/04:00pm 21.4 20.4 15.7 70 3.4 NE 15 20 8 11 1019.3 1019.3 0.0
02/03:30pm 22.3 21.6 15.4 65 4.1 NNE 13 22 7 12 1019.5 1019.5 0.0
02/03:00pm 22.4 21.7 15.5 65 4.1 NE 13 17 7 9 1019.6 1019.6 0.0
02/02:30pm 22.4 21.1 14.8 62 4.5 NE 15 26 8 14 1019.8 1019.8 0.0
02/02:00pm 22.6 22.1 15.9 66 4.0 NE 13 22 7 12 1020.1 1020.1 0.0
02/01:30pm 22.6 21.2 14.4 60 4.8 NNE 15 22 8 12 1020.4 1020.4 0.0
02/01:00pm 24.3 23.3 14.7 55 5.7 NNW 13 19 7 10 1020.8 1020.8 0.0
02/12:30pm 23.3 21.6 13.5 54 5.7 N 15 24 8 13 1021.2 1021.2 0.0
02/12:00pm 23.2 22.6 14.5 58 5.1 NNW 11 19 6 10 1021.9 1021.9 0.0
02/11:30am 22.7 21.8 14.8 61 4.7 NNW 13 20 7 11 1022.3 1022.3 0.0
02/11:00am 21.8 20.2 13.9 61 4.6 NNW 15 22 8 12 1022.8 1022.8 0.0
02/10:30am 22.0 21.9 14.9 64 4.2 NW 9 15 5 8 1023.0 1023.0 0.0
02/10:00am 20.8 20.4 14.0 65 3.9 NW 9 15 5 8 1023.3 1023.3 0.0
02/09:30am 20.6 20.3 14.3 67 3.7 NW 9 15 5 8 1023.4 1023.4 0.0
02/09:00am 19.5 20.9 14.5 73 2.9 CALM 0 4 0 2 1023.5 1023.5 0.0
02/08:30am 17.1 17.5 13.8 81 1.9 W 4 9 2 5 1023.6 1023.6 0.0
02/08:00am 14.9 14.4 12.8 87 1.1 WNW 7 11 4 6 1023.5 1023.5 0.0
02/07:30am 13.2 12.9 12.7 97 0.3 NW 6 9 3 5 1023.5 1023.5 0.0
02/07:00am 11.3 10.9 11.1 99 0.1 WNW 4 7 2 4 1023.2 1023.2 0.0
02/06:30am 10.6 10.8 10.4 99 0.1 CALM 0 0 0 0 1023.0 1023.0 0.0
02/06:00am 10.6 10.8 10.4 99 0.1 CALM 0 4 0 2 1022.8 1022.8 0.0
02/05:30am 10.4 10.5 10.2 99 0.1 CALM 0 2 0 1 1022.6 1022.6 0.0
02/05:00am 10.9 11.1 10.7 99 0.1 CALM 0 0 0 0 1022.4 1022.4 0.0
02/04:30am 10.8 11.0 10.6 99 0.1 CALM 0 0 0 0 1022.3 1022.3 0.0
02/04:00am 10.9 11.1 10.7 99 0.1 CALM 0 0 0 0 1022.3 1022.3 0.0
02/03:30am 11.3 11.7 11.1 99 0.1 CALM 0 0 0 0 1022.2 1022.2 0.0
02/03:00am 11.4 11.8 11.2 99 0.1 CALM 0 0 0 0 1022.4 1022.4 0.0
02/02:30am 11.8 12.3 11.6 99 0.1 CALM 0 0 0 0 1022.4 1022.4 0.0
02/02:00am 11.7 12.2 11.5 99 0.1 CALM 0 0 0 0 1022.5 1022.5 0.0
02/01:30am 12.1 12.7 11.9 99 0.1 CALM 0 0 0 0 1022.7 1022.7 0.0
02/01:00am 12.1 12.7 11.8 98 0.2 CALM 0 0 0 0 1022.8 1022.8 0.0
02/12:30am 12.2 12.7 11.7 97 0.3 CALM 0 0 0 0 1023.1 1023.1 0.0
02/12:00am 12.6 13.3 12.1 97 0.3 CALM 0 0 0 0 1023.3 1023.3 0.0
 
Date/Time
EST
Tmp

°C
App
Tmp
°C
Dew
Point
°C
Rel
Hum
%
Delta-T

°C
Wind Press
QNH
hPa
Press
MSL
hPa
Rain
since
9 am
mm
Dir
 
Spd
km/h
Gust
km/h
Spd
kts
Gust
kts
01/11:30pm 13.0 13.8 12.5 97 0.3 CALM 0 0 0 0 1023.6 1023.6 0.0
01/11:00pm 13.0 13.8 12.5 97 0.3 CALM 0 0 0 0 1023.5 1023.5 0.0
01/10:30pm 13.1 14.0 12.8 98 0.2 CALM 0 0 0 0 1023.3 1023.3 0.0
01/10:00pm 13.2 14.0 12.4 95 0.4 CALM 0 0 0 0 1023.4 1023.4 0.0
01/09:30pm 13.3 14.0 12.2 93 0.6 CALM 0 0 0 0 1023.3 1023.3 0.0
01/09:00pm 14.1 15.0 12.8 92 0.7 CALM 0 0 0 0 1023.4 1023.4 0.0
01/08:30pm 14.8 15.9 13.5 92 0.7 CALM 0 0 0 0 1023.1 1023.1 0.0
01/08:00pm 14.9 15.9 13.3 90 0.9 CALM 0 0 0 0 1022.8 1022.8 0.0
01/07:30pm 15.6 15.9 13.3 86 1.3 WSW 4 9 2 5 1022.7 1022.7 0.0
01/07:00pm 17.1 18.2 13.6 80 2.0 CALM 0 0 0 0 1022.4 1022.4 0.0
01/06:30pm 17.6 18.5 13.9 79 2.1 NNE 2 7 1 4 1022.0 1022.0 0.0
01/06:00pm 17.9 17.9 13.6 76 2.4 N 6 9 3 5 1021.8 1021.8 0.0
01/05:30pm 18.3 18.3 14.2 77 2.4 NE 7 9 4 5 1021.6 1021.6 0.0
01/05:00pm 19.1 18.6 13.7 71 3.1 NNE 9 13 5 7 1021.3 1021.3 0.0
01/04:30pm 19.8 19.0 14.0 69 3.3 NE 11 17 6 9 1021.3 1021.3 0.0
01/04:00pm 20.1 18.5 12.8 63 4.1 NNE 13 19 7 10 1021.3 1021.3 0.0
01/03:30pm 20.3 18.5 12.0 59 4.6 NNE 13 17 7 9 1021.2 1021.2 0.0
01/03:00pm 20.6 19.7 13.6 64 4.0 NE 11 17 6 9 1021.1 1021.1 0.0
01/02:30pm 21.1 19.6 13.0 60 4.6 NNE 13 19 7 10 1021.1 1021.1 0.0
01/02:00pm 21.4 19.9 13.1 59 4.7 NNE 13 20 7 11 1021.0 1021.0 0.0
01/01:30pm 21.3 19.3 11.6 54 5.4 NNE 13 20 7 11 1021.4 1021.4 0.0
01/01:00pm 21.7 20.5 12.8 57 5.1 NNE 11 19 6 10 1021.9 1021.9 0.0
01/12:30pm 21.9 20.5 12.2 54 5.5 NE 11 17 6 9 1022.3 1022.3 0.0
01/12:00pm 22.1 21.0 13.2 57 5.1 NNE 11 15 6 8 1022.8 1022.8 0.0
01/11:30am 21.7 20.7 12.3 55 5.3 N 9 15 5 8 1023.2 1023.2 0.0
01/11:00am 21.2 20.1 12.1 56 5.1 N 9 17 5 9 1023.9 1023.9 0.0
01/10:30am 21.1 20.6 12.8 59 4.7 N 7 13 4 7 1024.3 1024.3 0.0
01/10:00am 21.0 21.0 13.7 63 4.2 NW 6 11 3 6 1024.4 1024.4 0.0
01/09:30am 19.8 19.8 13.7 68 3.5 NW 6 7 3 4 1024.4 1024.4 0.0
01/09:00am 17.4 16.8 11.7 69 3.1 N 6 6 3 3 1024.3 1024.3 0.0
01/08:30am 16.3 16.7 12.5 78 2.1 WNW 2 6 1 3 1023.9 1023.9 0.0
01/08:00am 13.4 13.4 11.1 86 1.2 NNW 2 7 1 4 1023.5 1023.5 0.0
01/07:30am 11.8 12.1 10.9 94 0.5 CALM 0 0 0 0 1023.2 1023.2 0.0
01/07:00am 10.2 10.3 10.0 99 0.1 CALM 0 6 0 3 1023.1 1023.1 0.0
01/06:30am 9.6 9.5 9.5 99 0.0 CALM 0 0 0 0 1023.0 1023.0 0.0
01/06:00am 9.7 9.6 9.6 99 0.0 CALM 0 0 0 0 1023.0 1023.0 0.0
01/05:30am 9.7 9.6 9.6 99 0.0 CALM 0 0 0 0 1022.6 1022.6 0.0
01/05:00am 10.0 10.0 9.9 99 0.1 CALM 0 0 0 0 1022.4 1022.4 0.0
01/04:30am 10.0 10.0 9.9 99 0.1 CALM 0 0 0 0 1022.1 1022.1 0.0
01/04:00am 10.1 10.1 9.8 98 0.1 CALM 0 0 0 0 1022.1 1022.1 0.0
01/03:30am 10.6 10.7 10.3 98 0.2 CALM 0 0 0 0 1022.0 1022.0 0.0
01/03:00am 10.9 11.1 10.6 98 0.2 CALM 0 0 0 0 1022.4 1022.4 0.0
01/02:30am 11.5 11.9 11.3 99 0.1 CALM 0 0 0 0 1022.4 1022.4 0.0
01/02:00am 11.7 12.2 11.5 99 0.1 CALM 0 0 0 0 1022.4 1022.4 0.0
01/01:30am 11.9 12.1 11.7 99 0.1 NNW 2 6 1 3 1022.5 1022.5 0.0
01/01:00am 11.5 11.9 11.3 99 0.1 CALM 0 0 0 0 1022.7 1022.7 0.0
01/12:30am 11.5 11.4 10.9 96 0.3 NW 2 6 1 3 1022.5 1022.5 0.0
01/12:00am 11.6 12.0 11.3 98 0.2 CALM 0 0 0 0 1022.7 1022.7 0.0
 
Date/Time
EST
Tmp

°C
App
Tmp
°C
Dew
Point
°C
Rel
Hum
%
Delta-T

°C
Wind Press
QNH
hPa
Press
MSL
hPa
Rain
since
9 am
mm
Dir
 
Spd
km/h
Gust
km/h
Spd
kts
Gust
kts
31/11:30pm 12.0 12.4 11.2 95 0.4 CALM 0 0 0 0 1022.7 1022.7 0.0
31/11:00pm 12.3 12.8 11.5 95 0.4 CALM 0 0 0 0 1022.7 1022.7 0.0
31/10:30pm 12.5 13.0 11.7 95 0.4 CALM 0 0 0 0 1022.7 1022.7 0.0
31/10:00pm 13.1 13.4 12.3 95 0.4 SSW 2 6 1 3 1022.9 1022.9 0.0
31/09:30pm 13.3 14.1 12.5 95 0.4 CALM 0 0 0 0 1022.7 1022.7 0.0
31/09:00pm 13.7 14.3 11.9 89 1.0 CALM 0 0 0 0 1022.3 1022.3 0.0
31/08:30pm 14.1 14.8 12.1 88 1.1 CALM 0 0 0 0 1022.1 1022.1 0.0
31/08:00pm 14.5 15.1 12.0 85 1.3 CALM 0 0 0 0 1022.0 1022.0 0.0
31/07:30pm 15.1 15.8 12.2 83 1.6 CALM 0 0 0 0 1021.8 1021.8 0.0
31/07:00pm 16.0 16.7 12.2 78 2.1 CALM 0 0 0 0 1021.5 1021.5 0.0
31/06:30pm 16.9 16.0 11.2 69 3.1 NW 7 9 4 5 1021.2 1021.2 0.0
31/06:00pm 17.6 18.0 11.2 66 3.5 CALM 0 0 0 0 1021.1 1021.1 0.0
31/05:30pm 18.2 18.3 11.5 65 3.7 NE 2 6 1 3 1021.0 1021.0 0.0
31/05:00pm 19.1 18.0 12.1 64 3.9 NNE 9 13 5 7 1020.7 1020.7 0.0
31/04:30pm 19.8 18.4 12.1 61 4.3 NE 11 17 6 9 1020.4 1020.4 0.0
31/04:00pm 20.1 17.4 11.8 59 4.6 NNE 17 24 9 13 1020.4 1020.4 0.0
31/03:30pm 20.4 18.5 13.1 63 4.2 NNE 15 22 8 12 1020.2 1020.2 0.0
31/03:00pm 20.8 19.5 13.7 64 4.1 NNE 13 20 7 11 1020.4 1020.4 0.0

Latest Capital City Observations: Canberra | Sydney | Melbourne | Brisbane | Adelaide | Perth | Hobart | Darwin

Other Formats:

Comma delimited format used in spreadsheet applications
http://www.bom.gov.au/fwo/IDQ60901/IDQ60901.94570.axf

JavaScript Object Notation format (JSON) in row-major order
http://www.bom.gov.au/fwo/IDQ60901/IDQ60901.94570.json